sensor_id;sensor_type;location;lat;lon;timestamp;pressure;altitude;pressure_sealevel;temperature;humidity
27958;BME280;15295;42.658;23.374;2022-11-30T00:01:22;94727.78;;;9.86;57.40
27958;BME280;15295;42.658;23.374;2022-11-30T00:03:51;94717.25;;;9.78;57.48
27958;BME280;15295;42.658;23.374;2022-11-30T00:06:16;94725.06;;;9.86;57.41
27958;BME280;15295;42.658;23.374;2022-11-30T00:08:56;94728.16;;;9.67;57.63
27958;BME280;15295;42.658;23.374;2022-11-30T00:11:23;94740.25;;;9.77;57.61
27958;BME280;15295;42.658;23.374;2022-11-30T00:13:49;94728.53;;;9.66;57.55
27958;BME280;15295;42.658;23.374;2022-11-30T00:16:15;94742.22;;;9.83;57.42
27958;BME280;15295;42.658;23.374;2022-11-30T00:18:40;94740.25;;;9.84;57.53
27958;BME280;15295;42.658;23.374;2022-11-30T00:21:09;94745.72;;;9.91;57.12
27958;BME280;15295;42.658;23.374;2022-11-30T00:23:37;94743.34;;;9.65;57.13
27958;BME280;15295;42.658;23.374;2022-11-30T00:26:05;94752.34;;;9.76;57.10
27958;BME280;15295;42.658;23.374;2022-11-30T00:28:32;94749.22;;;9.81;57.09
27958;BME280;15295;42.658;23.374;2022-11-30T00:31:17;94753.53;;;9.96;57.09
27958;BME280;15295;42.658;23.374;2022-11-30T00:33:43;94743.34;;;9.75;57.21
27958;BME280;15295;42.658;23.374;2022-11-30T00:36:11;94755.88;;;9.83;57.44
27958;BME280;15295;42.658;23.374;2022-11-30T00:38:37;94757.81;;;9.79;57.42
27958;BME280;15295;42.658;23.374;2022-11-30T00:41:03;94751.91;;;9.67;57.71
27958;BME280;15295;42.658;23.374;2022-11-30T00:43:29;94757.41;;;9.74;57.71
27958;BME280;15295;42.658;23.374;2022-11-30T00:45:54;94735.53;;;9.53;57.81
27958;BME280;15295;42.658;23.374;2022-11-30T00:48:20;94751.13;;;9.59;57.81
27958;BME280;15295;42.658;23.374;2022-11-30T00:50:47;94740.22;;;9.59;57.87
27958;BME280;15295;42.658;23.374;2022-11-30T00:53:12;94730.06;;;9.49;58.11
27958;BME280;15295;42.658;23.374;2022-11-30T00:55:37;94729.31;;;9.56;58.08
27958;BME280;15295;42.658;23.374;2022-11-30T00:58:03;94740.63;;;9.61;58.13
27958;BME280;15295;42.658;23.374;2022-11-30T01:00:37;94734.78;;;9.73;58.01
27958;BME280;15295;42.658;23.374;2022-11-30T01:03:03;94742.94;;;9.56;58.11
27958;BME280;15295;42.658;23.374;2022-11-30T01:05:29;94737.09;;;9.61;58.05
27958;BME280;15295;42.658;23.374;2022-11-30T01:07:54;94746.06;;;9.61;58.18
27958;BME280;15295;42.658;23.374;2022-11-30T01:10:24;94741.81;;;9.74;58.13
27958;BME280;15295;42.658;23.374;2022-11-30T01:12:49;94737.13;;;9.64;58.03
27958;BME280;15295;42.658;23.374;2022-11-30T01:15:15;94719.94;;;9.53;57.94
27958;BME280;15295;42.658;23.374;2022-11-30T01:17:40;94716.41;;;9.42;58.21
27958;BME280;15295;42.658;23.374;2022-11-30T01:20:06;94737.06;;;9.50;58.52
27958;BME280;15295;42.658;23.374;2022-11-30T01:22:33;94726.97;;;9.47;58.45
27958;BME280;15295;42.658;23.374;2022-11-30T01:24:59;94736.72;;;9.55;58.49
27958;BME280;15295;42.658;23.374;2022-11-30T01:27:24;94730.06;;;9.53;58.39
27958;BME280;15295;42.658;23.374;2022-11-30T01:29:50;94731.28;;;9.62;58.37
27958;BME280;15295;42.658;23.374;2022-11-30T01:32:15;94734.00;;;9.69;58.04
27958;BME280;15295;42.658;23.374;2022-11-30T01:34:40;94730.91;;;9.74;58.20
27958;BME280;15295;42.658;23.374;2022-11-30T01:37:06;94734.03;;;9.73;57.89
27958;BME280;15295;42.658;23.374;2022-11-30T01:39:31;94735.56;;;9.74;57.85
27958;BME280;15295;42.658;23.374;2022-11-30T01:41:56;94740.25;;;9.80;57.83
27958;BME280;15295;42.658;23.374;2022-11-30T01:46:55;94740.28;;;9.87;57.89
27958;BME280;15295;42.658;23.374;2022-11-30T01:49:30;94727.00;;;9.82;57.76
27958;BME280;15295;42.658;23.374;2022-11-30T01:52:10;94728.94;;;9.82;57.94
27958;BME280;15295;42.658;23.374;2022-11-30T01:54:41;94733.25;;;9.79;57.93
27958;BME280;15295;42.658;23.374;2022-11-30T01:59:47;94725.03;;;9.76;57.89
27958;BME280;15295;42.658;23.374;2022-11-30T02:02:16;94723.88;;;9.70;58.01
27958;BME280;15295;42.658;23.374;2022-11-30T02:04:43;94721.13;;;9.63;58.20
27958;BME280;15295;42.658;23.374;2022-11-30T02:07:10;94719.97;;;9.71;58.28
27958;BME280;15295;42.658;23.374;2022-11-30T02:09:44;94711.78;;;9.78;58.03
27958;BME280;15295;42.658;23.374;2022-11-30T02:12:24;94714.94;;;9.83;57.67
27958;BME280;15295;42.658;23.374;2022-11-30T02:14:53;94716.44;;;9.63;58.35
27958;BME280;15295;42.658;23.374;2022-11-30T02:17:24;94714.09;;;9.55;58.32
27958;BME280;15295;42.658;23.374;2022-11-30T02:23:19;94727.75;;;9.69;58.23
27958;BME280;15295;42.658;23.374;2022-11-30T02:26:02;94728.53;;;9.62;58.55
27958;BME280;15295;42.658;23.374;2022-11-30T02:31:36;94724.63;;;9.60;58.76
27958;BME280;15295;42.658;23.374;2022-11-30T02:34:05;94717.63;;;9.55;59.08
27958;BME280;15295;42.658;23.374;2022-11-30T02:36:34;94709.41;;;9.52;59.14
27958;BME280;15295;42.658;23.374;2022-11-30T02:38:59;94718.78;;;9.51;58.86
27958;BME280;15295;42.658;23.374;2022-11-30T02:41:34;94707.09;;;9.61;58.61
27958;BME280;15295;42.658;23.374;2022-11-30T02:43:59;94716.44;;;9.49;58.87
27958;BME280;15295;42.658;23.374;2022-11-30T02:51:49;94713.72;;;9.53;59.25
27958;BME280;15295;42.658;23.374;2022-11-30T02:54:17;94730.47;;;9.58;59.42
27958;BME280;15295;42.658;23.374;2022-11-30T02:56:43;94720.34;;;9.59;59.15
27958;BME280;15295;42.658;23.374;2022-11-30T02:59:08;94719.16;;;9.49;59.27
27958;BME280;15295;42.658;23.374;2022-11-30T03:01:33;94711.75;;;9.43;59.45
27958;BME280;15295;42.658;23.374;2022-11-30T03:03:59;94719.53;;;9.41;59.10
27958;BME280;15295;42.658;23.374;2022-11-30T03:06:24;94720.28;;;9.34;59.24
27958;BME280;15295;42.658;23.374;2022-11-30T03:08:50;94725.00;;;9.41;59.23
27958;BME280;15295;42.658;23.374;2022-11-30T03:11:15;94729.66;;;9.44;59.41
27958;BME280;15295;42.658;23.374;2022-11-30T03:13:41;94708.19;;;9.35;59.39
27958;BME280;15295;42.658;23.374;2022-11-30T03:16:08;94718.34;;;9.42;59.41
27958;BME280;15295;42.658;23.374;2022-11-30T03:18:34;94726.13;;;9.40;59.37
27958;BME280;15295;42.658;23.374;2022-11-30T03:20:59;94710.53;;;9.29;59.69
27958;BME280;15295;42.658;23.374;2022-11-30T03:23:46;94727.75;;;9.55;59.70
27958;BME280;15295;42.658;23.374;2022-11-30T03:26:12;94723.41;;;9.36;59.79
27958;BME280;15295;42.658;23.374;2022-11-30T03:28:37;94730.03;;;9.35;60.19
27958;BME280;15295;42.658;23.374;2022-11-30T03:31:03;94719.50;;;9.30;60.06
27958;BME280;15295;42.658;23.374;2022-11-30T03:33:28;94723.00;;;9.23;60.29
27958;BME280;15295;42.658;23.374;2022-11-30T03:36:05;94723.03;;;9.45;59.99
27958;BME280;15295;42.658;23.374;2022-11-30T03:38:31;94722.59;;;9.28;60.25
27958;BME280;15295;42.658;23.374;2022-11-30T03:41:02;94718.72;;;9.29;60.48
27958;BME280;15295;42.658;23.374;2022-11-30T03:43:29;94719.47;;;9.19;60.65
27958;BME280;15295;42.658;23.374;2022-11-30T03:45:54;94720.66;;;9.29;60.57
27958;BME280;15295;42.658;23.374;2022-11-30T03:48:20;94714.81;;;9.23;60.65
27958;BME280;15295;42.658;23.374;2022-11-30T03:50:46;94729.59;;;9.26;60.82
27958;BME280;15295;42.658;23.374;2022-11-30T03:53:16;94733.13;;;9.37;60.82
27958;BME280;15295;42.658;23.374;2022-11-30T03:55:42;94726.13;;;9.32;60.57
27958;BME280;15295;42.658;23.374;2022-11-30T03:58:07;94731.56;;;9.32;60.64
27958;BME280;15295;42.658;23.374;2022-11-30T04:00:32;94730.81;;;9.32;60.60
27958;BME280;15295;42.658;23.374;2022-11-30T04:03:11;94718.34;;;9.38;60.41
27958;BME280;15295;42.658;23.374;2022-11-30T04:05:36;94724.13;;;9.26;60.48
27958;BME280;15295;42.658;23.374;2022-11-30T04:08:02;94734.69;;;9.27;60.57
27958;BME280;15295;42.658;23.374;2022-11-30T04:10:27;94736.22;;;9.25;60.62
27958;BME280;15295;42.658;23.374;2022-11-30T04:13:09;94730.06;;;9.39;60.40
27958;BME280;15295;42.658;23.374;2022-11-30T04:15:34;94738.97;;;9.21;60.44
27958;BME280;15295;42.658;23.374;2022-11-30T04:18:00;94734.25;;;9.22;60.50
27958;BME280;15295;42.658;23.374;2022-11-30T04:20:25;94741.69;;;9.21;60.29
27958;BME280;15295;42.658;23.374;2022-11-30T04:22:52;94721.38;;;9.12;60.65
27958;BME280;15295;42.658;23.374;2022-11-30T04:25:17;94738.84;;;9.00;60.90
27958;BME280;15295;42.658;23.374;2022-11-30T04:27:44;94719.75;;;9.00;61.09
27958;BME280;15295;42.658;23.374;2022-11-30T04:30:11;94748.19;;;8.99;61.16
27958;BME280;15295;42.658;23.374;2022-11-30T04:32:36;94723.63;;;8.85;61.32
27958;BME280;15295;42.658;23.374;2022-11-30T04:35:02;94734.94;;;8.94;61.47
27958;BME280;15295;42.658;23.374;2022-11-30T04:37:27;94742.34;;;8.97;61.35
27958;BME280;15295;42.658;23.374;2022-11-30T04:39:53;94745.88;;;9.05;61.70
27958;BME280;15295;42.658;23.374;2022-11-30T04:42:18;94736.13;;;8.93;61.49
27958;BME280;15295;42.658;23.374;2022-11-30T04:44:45;94730.66;;;9.00;61.54
27958;BME280;15295;42.658;23.374;2022-11-30T04:47:11;94740.06;;;9.06;61.30
27958;BME280;15295;42.658;23.374;2022-11-30T04:49:49;94726.03;;;9.11;61.20
27958;BME280;15295;42.658;23.374;2022-11-30T04:52:15;94742.34;;;8.97;61.69
27958;BME280;15295;42.658;23.374;2022-11-30T04:54:42;94745.13;;;9.04;61.60
27958;BME280;15295;42.658;23.374;2022-11-30T04:57:08;94742.41;;;9.04;61.44
27958;BME280;15295;42.658;23.374;2022-11-30T04:59:33;94745.47;;;8.99;61.48
27958;BME280;15295;42.658;23.374;2022-11-30T05:01:58;94746.66;;;9.05;61.25
27958;BME280;15295;42.658;23.374;2022-11-30T05:04:41;94748.63;;;9.08;61.55
27958;BME280;15295;42.658;23.374;2022-11-30T05:07:07;94744.69;;;8.99;61.38
27958;BME280;15295;42.658;23.374;2022-11-30T05:09:33;94752.94;;;9.13;61.04
27958;BME280;15295;42.658;23.374;2022-11-30T05:12:00;94743.19;;;9.08;60.90
27958;BME280;15295;42.658;23.374;2022-11-30T05:14:27;94751.72;;;9.07;61.05
27958;BME280;15295;42.658;23.374;2022-11-30T05:16:52;94761.50;;;9.11;60.98
27958;BME280;15295;42.658;23.374;2022-11-30T05:19:17;94753.69;;;9.06;60.67
27958;BME280;15295;42.658;23.374;2022-11-30T05:21:43;94759.16;;;9.13;61.03
27958;BME280;15295;42.658;23.374;2022-11-30T05:24:10;94752.56;;;9.14;60.83
27958;BME280;15295;42.658;23.374;2022-11-30T05:26:36;94758.75;;;9.11;60.71
27958;BME280;15295;42.658;23.374;2022-11-30T05:29:03;94752.84;;;8.95;61.11
27958;BME280;15295;42.658;23.374;2022-11-30T05:31:29;94755.53;;;8.88;61.24
27958;BME280;15295;42.658;23.374;2022-11-30T05:33:54;94752.06;;;8.91;61.15
27958;BME280;15295;42.658;23.374;2022-11-30T05:36:20;94752.41;;;8.86;61.30
27958;BME280;15295;42.658;23.374;2022-11-30T05:38:46;94754.00;;;8.94;61.33
27958;BME280;15295;42.658;23.374;2022-11-30T05:41:12;94763.75;;;8.95;61.29
27958;BME280;15295;42.658;23.374;2022-11-30T05:43:40;94762.28;;;9.08;61.00
27958;BME280;15295;42.658;23.374;2022-11-30T05:46:07;94767.69;;;8.98;61.10
27958;BME280;15295;42.658;23.374;2022-11-30T05:48:33;94766.09;;;8.97;61.34
27958;BME280;15295;42.658;23.374;2022-11-30T05:53:32;94760.03;;;9.28;60.47
27958;BME280;15295;42.658;23.374;2022-11-30T05:56:01;94769.78;;;9.40;60.32
27958;BME280;15295;42.658;23.374;2022-11-30T05:58:27;94770.56;;;9.44;60.12
27958;BME280;15295;42.658;23.374;2022-11-30T06:00:52;94776.81;;;9.44;59.96
27958;BME280;15295;42.658;23.374;2022-11-30T06:03:18;94780.22;;;9.16;60.56
27958;BME280;15295;42.658;23.374;2022-11-30T06:05:43;94769.28;;;9.09;60.65
27958;BME280;15295;42.658;23.374;2022-11-30T06:08:09;94785.72;;;9.23;60.38
27958;BME280;15295;42.658;23.374;2022-11-30T06:10:34;94783.03;;;9.38;59.52
27958;BME280;15295;42.658;23.374;2022-11-30T06:13:05;94798.59;;;9.33;59.59
27958;BME280;15295;42.658;23.374;2022-11-30T06:15:30;94783.72;;;9.17;59.33
27958;BME280;15295;42.658;23.374;2022-11-30T06:17:56;94797.75;;;9.22;59.23
27958;BME280;15295;42.658;23.374;2022-11-30T06:20:21;94796.97;;;9.18;59.06
27958;BME280;15295;42.658;23.374;2022-11-30T06:22:47;94799.00;;;9.39;58.88
27958;BME280;15295;42.658;23.374;2022-11-30T06:25:12;94805.56;;;9.24;59.34
27958;BME280;15295;42.658;23.374;2022-11-30T06:27:45;94791.16;;;9.30;59.20
27958;BME280;15295;42.658;23.374;2022-11-30T06:30:11;94803.28;;;9.40;58.88
27958;BME280;15295;42.658;23.374;2022-11-30T06:32:38;94802.16;;;9.45;59.06
27958;BME280;15295;42.658;23.374;2022-11-30T06:35:08;94809.59;;;9.55;58.87
27958;BME280;15295;42.658;23.374;2022-11-30T06:37:33;94800.25;;;9.63;58.96
27958;BME280;15295;42.658;23.374;2022-11-30T06:39:59;94805.31;;;9.61;58.83
27958;BME280;15295;42.658;23.374;2022-11-30T06:42:28;94811.97;;;9.70;58.79
27958;BME280;15295;42.658;23.374;2022-11-30T06:44:53;94809.63;;;9.69;58.47
27958;BME280;15295;42.658;23.374;2022-11-30T06:47:18;94810.41;;;9.66;58.30
27958;BME280;15295;42.658;23.374;2022-11-30T06:49:44;94805.72;;;9.70;58.29
27958;BME280;15295;42.658;23.374;2022-11-30T06:52:09;94804.56;;;9.64;58.41
27958;BME280;15295;42.658;23.374;2022-11-30T06:54:35;94808.09;;;9.78;58.34
27958;BME280;15295;42.658;23.374;2022-11-30T06:57:06;94801.06;;;9.70;58.46
27958;BME280;15295;42.658;23.374;2022-11-30T06:59:31;94799.03;;;9.50;58.17
27958;BME280;15295;42.658;23.374;2022-11-30T07:01:57;94805.69;;;9.59;58.04
27958;BME280;15295;42.658;23.374;2022-11-30T07:04:22;94806.50;;;9.60;58.05
27958;BME280;15295;42.658;23.374;2022-11-30T07:06:50;94804.97;;;9.73;57.87
27958;BME280;15295;42.658;23.374;2022-11-30T07:09:15;94803.78;;;9.77;57.84
27958;BME280;15295;42.658;23.374;2022-11-30T07:11:40;94811.59;;;9.72;57.87
27958;BME280;15295;42.658;23.374;2022-11-30T07:14:06;94814.28;;;9.58;58.27
27958;BME280;15295;42.658;23.374;2022-11-30T07:16:32;94797.13;;;9.57;58.04
27958;BME280;15295;42.658;23.374;2022-11-30T07:18:57;94813.16;;;9.73;57.81
27958;BME280;15295;42.658;23.374;2022-11-30T07:21:23;94797.19;;;9.75;57.76
27958;BME280;15295;42.658;23.374;2022-11-30T07:23:48;94811.59;;;9.75;57.37
27958;BME280;15295;42.658;23.374;2022-11-30T07:26:33;94807.28;;;9.67;57.64
27958;BME280;15295;42.658;23.374;2022-11-30T07:28:59;94809.25;;;9.77;57.49
27958;BME280;15295;42.658;23.374;2022-11-30T07:31:29;94810.75;;;9.61;57.94
27958;BME280;15295;42.658;23.374;2022-11-30T07:33:56;94822.53;;;9.79;57.64
27958;BME280;15295;42.658;23.374;2022-11-30T07:36:25;94810.03;;;9.74;57.44
27958;BME280;15295;42.658;23.374;2022-11-30T07:38:51;94803.78;;;9.70;57.78
27958;BME280;15295;42.658;23.374;2022-11-30T07:41:16;94802.63;;;9.64;57.76
27958;BME280;15295;42.658;23.374;2022-11-30T07:43:42;94807.69;;;9.76;57.60
27958;BME280;15295;42.658;23.374;2022-11-30T07:46:10;94800.66;;;9.75;57.71
27958;BME280;15295;42.658;23.374;2022-11-30T07:48:36;94808.84;;;9.75;57.71
27958;BME280;15295;42.658;23.374;2022-11-30T07:51:07;94819.78;;;9.72;57.93
27958;BME280;15295;42.658;23.374;2022-11-30T07:53:33;94800.28;;;9.70;57.84
27958;BME280;15295;42.658;23.374;2022-11-30T07:56:06;94800.25;;;9.63;57.72
27958;BME280;15295;42.658;23.374;2022-11-30T07:58:33;94799.06;;;9.60;58.07
27958;BME280;15295;42.658;23.374;2022-11-30T08:01:04;94797.91;;;9.65;57.88
27958;BME280;15295;42.658;23.374;2022-11-30T08:03:32;94783.88;;;9.63;57.71
27958;BME280;15295;42.658;23.374;2022-11-30T08:06:08;94801.44;;;9.65;57.77
27958;BME280;15295;42.658;23.374;2022-11-30T08:08:36;94802.59;;;9.68;57.67
27958;BME280;15295;42.658;23.374;2022-11-30T08:11:07;94802.25;;;9.76;57.30
27958;BME280;15295;42.658;23.374;2022-11-30T08:13:33;94790.16;;;9.74;57.64
27958;BME280;15295;42.658;23.374;2022-11-30T08:16:12;94785.84;;;9.69;57.87
27958;BME280;15295;42.658;23.374;2022-11-30T08:18:42;94804.22;;;9.79;57.63
27958;BME280;15295;42.658;23.374;2022-11-30T08:21:09;94803.75;;;9.67;58.02
27958;BME280;15295;42.658;23.374;2022-11-30T08:23:38;94804.19;;;9.76;57.51
27958;BME280;15295;42.658;23.374;2022-11-30T08:26:12;94805.72;;;9.70;57.68
27958;BME280;15295;42.658;23.374;2022-11-30T08:28:40;94801.03;;;9.63;57.73
27958;BME280;15295;42.658;23.374;2022-11-30T08:31:11;94815.91;;;9.87;57.24
27958;BME280;15295;42.658;23.374;2022-11-30T08:33:37;94811.19;;;9.70;57.64
27958;BME280;15295;42.658;23.374;2022-11-30T08:36:10;94818.63;;;9.80;57.64
27958;BME280;15295;42.658;23.374;2022-11-30T08:38:37;94810.41;;;9.69;57.33
27958;BME280;15295;42.658;23.374;2022-11-30T08:41:04;94801.06;;;9.77;57.22
27958;BME280;15295;42.658;23.374;2022-11-30T08:43:30;94799.16;;;9.81;56.93
27958;BME280;15295;42.658;23.374;2022-11-30T08:45:56;94807.34;;;9.81;57.01
27958;BME280;15295;42.658;23.374;2022-11-30T08:48:24;94810.47;;;9.97;57.14
27958;BME280;15295;42.658;23.374;2022-11-30T08:50:51;94807.72;;;9.87;57.15
27958;BME280;15295;42.658;23.374;2022-11-30T08:53:16;94803.06;;;9.87;56.90
27958;BME280;15295;42.658;23.374;2022-11-30T08:55:42;94803.50;;;10.11;56.67
27958;BME280;15295;42.658;23.374;2022-11-30T08:58:08;94806.59;;;10.09;56.92
27958;BME280;15295;42.658;23.374;2022-11-30T09:00:34;94800.38;;;10.12;56.52
27958;BME280;15295;42.658;23.374;2022-11-30T09:02:59;94803.47;;;10.07;56.61
27958;BME280;15295;42.658;23.374;2022-11-30T09:05:24;94802.75;;;10.17;56.59
27958;BME280;15295;42.658;23.374;2022-11-30T09:07:52;94805.09;;;10.36;56.09
27958;BME280;15295;42.658;23.374;2022-11-30T09:10:17;94813.66;;;10.21;56.36
27958;BME280;15295;42.658;23.374;2022-11-30T09:12:42;94808.97;;;10.11;56.73
27958;BME280;15295;42.658;23.374;2022-11-30T09:15:09;94803.50;;;10.25;56.49
27958;BME280;15295;42.658;23.374;2022-11-30T09:17:35;94810.94;;;10.17;57.00
27958;BME280;15295;42.658;23.374;2022-11-30T09:20:01;94810.94;;;10.31;56.76
27958;BME280;15295;42.658;23.374;2022-11-30T09:22:27;94802.34;;;10.40;56.65
27958;BME280;15295;42.658;23.374;2022-11-30T09:24:54;94808.22;;;10.38;56.51
27958;BME280;15295;42.658;23.374;2022-11-30T09:27:20;94801.19;;;10.30;56.55
27958;BME280;15295;42.658;23.374;2022-11-30T09:29:45;94816.78;;;10.33;56.53
27958;BME280;15295;42.658;23.374;2022-11-30T09:32:11;94809.38;;;10.41;56.66
27958;BME280;15295;42.658;23.374;2022-11-30T09:34:36;94813.69;;;10.45;56.71
27958;BME280;15295;42.658;23.374;2022-11-30T09:37:03;94817.94;;;10.39;56.75
27958;BME280;15295;42.658;23.374;2022-11-30T09:39:28;94808.97;;;10.35;56.62
27958;BME280;15295;42.658;23.374;2022-11-30T09:44:50;94814.81;;;10.37;56.47
27958;BME280;15295;42.658;23.374;2022-11-30T09:50:20;94820.69;;;10.39;56.10
27958;BME280;15295;42.658;23.374;2022-11-30T09:52:49;94831.63;;;10.32;56.56
27958;BME280;15295;42.658;23.374;2022-11-30T09:55:29;94821.84;;;10.42;56.34
27958;BME280;15295;42.658;23.374;2022-11-30T09:58:02;94812.91;;;10.41;56.33
27958;BME280;15295;42.658;23.374;2022-11-30T10:00:29;94815.63;;;10.48;56.29
27958;BME280;15295;42.658;23.374;2022-11-30T10:02:56;94807.44;;;10.55;56.52
27958;BME280;15295;42.658;23.374;2022-11-30T10:17:08;94806.63;;;10.37;56.93
27958;BME280;15295;42.658;23.374;2022-11-30T10:22:34;94802.38;;;10.43;56.80
27958;BME280;15295;42.658;23.374;2022-11-30T10:30:47;94789.47;;;10.51;57.01
27958;BME280;15295;42.658;23.374;2022-11-30T10:33:24;94794.94;;;10.61;57.12
27958;BME280;15295;42.658;23.374;2022-11-30T10:35:53;94794.16;;;10.64;57.18
27958;BME280;15295;42.658;23.374;2022-11-30T10:38:23;94797.66;;;10.68;57.08
27958;BME280;15295;42.658;23.374;2022-11-30T10:43:40;94786.72;;;10.72;56.91
27958;BME280;15295;42.658;23.374;2022-11-30T10:46:17;94784.00;;;10.68;56.72
27958;BME280;15295;42.658;23.374;2022-11-30T10:48:47;94780.50;;;10.64;56.75
27958;BME280;15295;42.658;23.374;2022-11-30T10:51:15;94784.75;;;10.65;57.01
27958;BME280;15295;42.658;23.374;2022-11-30T10:53:41;94779.31;;;10.69;57.07
27958;BME280;15295;42.658;23.374;2022-11-30T10:56:12;94785.56;;;10.62;56.83
27958;BME280;15295;42.658;23.374;2022-11-30T10:59:09;94784.78;;;10.69;56.86
27958;BME280;15295;42.658;23.374;2022-11-30T11:01:38;94771.47;;;10.74;56.68
27958;BME280;15295;42.658;23.374;2022-11-30T11:06:49;94770.31;;;10.68;56.63
27958;BME280;15295;42.658;23.374;2022-11-30T11:12:16;94767.59;;;10.75;56.64
27958;BME280;15295;42.658;23.374;2022-11-30T11:14:42;94751.59;;;10.56;56.95
27958;BME280;15295;42.658;23.374;2022-11-30T11:19:46;94755.88;;;10.64;57.00
27958;BME280;15295;42.658;23.374;2022-11-30T11:24:46;94754.72;;;10.69;57.08
27958;BME280;15295;42.658;23.374;2022-11-30T11:29:54;94773.84;;;10.65;57.19
27958;BME280;15295;42.658;23.374;2022-11-30T11:32:23;94754.31;;;10.63;57.08
27958;BME280;15295;42.658;23.374;2022-11-30T11:34:52;94766.81;;;10.64;57.23
27958;BME280;15295;42.658;23.374;2022-11-30T11:37:32;94767.19;;;10.63;57.21
27958;BME280;15295;42.658;23.374;2022-11-30T11:40:17;94766.03;;;10.64;57.16
27958;BME280;15295;42.658;23.374;2022-11-30T11:42:47;94760.97;;;10.55;57.16
27958;BME280;15295;42.658;23.374;2022-11-30T11:45:25;94767.22;;;10.66;57.03
27958;BME280;15295;42.658;23.374;2022-11-30T11:48:00;94767.22;;;10.59;57.49
27958;BME280;15295;42.658;23.374;2022-11-30T11:50:31;94761.34;;;10.57;57.22
27958;BME280;15295;42.658;23.374;2022-11-30T11:55:34;94759.78;;;10.70;57.50
27958;BME280;15295;42.658;23.374;2022-11-30T11:58:02;94757.03;;;10.77;57.24
27958;BME280;15295;42.658;23.374;2022-11-30T12:00:28;94746.50;;;10.65;57.18
27958;BME280;15295;42.658;23.374;2022-11-30T12:03:16;94760.94;;;10.76;57.06
27958;BME280;15295;42.658;23.374;2022-11-30T12:08:49;94775.38;;;10.73;56.51
27958;BME280;15295;42.658;23.374;2022-11-30T12:11:33;94766.03;;;10.74;56.69
27958;BME280;15295;42.658;23.374;2022-11-30T12:14:02;94761.72;;;10.73;56.66
27958;BME280;15295;42.658;23.374;2022-11-30T12:16:41;94768.75;;;10.74;56.55
27958;BME280;15295;42.658;23.374;2022-11-30T12:19:27;94778.53;;;10.75;56.62
27958;BME280;15295;42.658;23.374;2022-11-30T12:30:14;94787.91;;;10.60;56.27
27958;BME280;15295;42.658;23.374;2022-11-30T12:37:57;94783.59;;;10.63;56.41
27958;BME280;15295;42.658;23.374;2022-11-30T12:45:52;94780.09;;;10.73;56.06
27958;BME280;15295;42.658;23.374;2022-11-30T12:51:16;94786.31;;;10.80;56.12
27958;BME280;15295;42.658;23.374;2022-11-30T12:54:03;94782.41;;;10.81;56.08
27958;BME280;15295;42.658;23.374;2022-11-30T13:07:31;94796.47;;;10.76;55.30
27958;BME280;15295;42.658;23.374;2022-11-30T13:10:17;94791.38;;;10.82;55.21
27958;BME280;15295;42.658;23.374;2022-11-30T13:12:50;94787.88;;;10.81;54.95
27958;BME280;15295;42.658;23.374;2022-11-30T13:15:22;94796.84;;;10.71;55.25
27958;BME280;15295;42.658;23.374;2022-11-30T13:17:49;94793.72;;;10.76;55.10
27958;BME280;15295;42.658;23.374;2022-11-30T13:20:19;94786.31;;;10.88;54.88
27958;BME280;15295;42.658;23.374;2022-11-30T14:14:48;94715.31;;;10.49;53.58
27958;BME280;15295;42.658;23.374;2022-11-30T14:24:56;94762.13;;;10.75;53.70
27958;BME280;15295;42.658;23.374;2022-11-30T14:27:24;94758.97;;;10.88;53.65
27958;BME280;15295;42.658;23.374;2022-11-30T14:48:06;94761.31;;;10.85;54.20
27958;BME280;15295;42.658;23.374;2022-11-30T14:50:32;94771.44;;;10.88;54.22
27958;BME280;15295;42.658;23.374;2022-11-30T14:56:01;94774.59;;;10.83;54.05
27958;BME280;15295;42.658;23.374;2022-11-30T15:01:02;94787.47;;;10.76;54.00
27958;BME280;15295;42.658;23.374;2022-11-30T15:03:36;94798.84;;;10.71;54.18
27958;BME280;15295;42.658;23.374;2022-11-30T15:06:05;94797.28;;;10.59;54.52
27958;BME280;15295;42.658;23.374;2022-11-30T15:16:25;94794.53;;;10.49;55.00
27958;BME280;15295;42.658;23.374;2022-11-30T15:18:54;94759.81;;;10.25;54.93
27958;BME280;15295;42.658;23.374;2022-11-30T15:21:26;94799.63;;;10.43;55.13
27958;BME280;15295;42.658;23.374;2022-11-30T15:24:00;94766.06;;;10.18;55.31
27958;BME280;15295;42.658;23.374;2022-11-30T15:31:48;94782.06;;;10.20;55.98
27958;BME280;15295;42.658;23.374;2022-11-30T15:34:18;94797.66;;;10.12;56.25
27958;BME280;15295;42.658;23.374;2022-11-30T15:36:45;94804.66;;;10.20;56.19
27958;BME280;15295;42.658;23.374;2022-11-30T15:39:18;94797.25;;;10.21;56.19
27958;BME280;15295;42.658;23.374;2022-11-30T15:41:45;94801.97;;;10.24;56.08
27958;BME280;15295;42.658;23.374;2022-11-30T15:44:39;94809.00;;;10.28;56.17
27958;BME280;15295;42.658;23.374;2022-11-30T15:47:22;94784.00;;;10.23;56.08
27958;BME280;15295;42.658;23.374;2022-11-30T15:50:39;94804.69;;;10.34;55.96
27958;BME280;15295;42.658;23.374;2022-11-30T15:53:34;94812.50;;;10.32;55.83
27958;BME280;15295;42.658;23.374;2022-11-30T15:56:06;94807.03;;;10.36;55.85
27958;BME280;15295;42.658;23.374;2022-11-30T15:58:40;94812.09;;;10.20;56.14
27958;BME280;15295;42.658;23.374;2022-11-30T16:01:17;94805.88;;;10.26;55.99
27958;BME280;15295;42.658;23.374;2022-11-30T16:06:19;94818.34;;;10.24;56.19
27958;BME280;15295;42.658;23.374;2022-11-30T16:08:46;94788.63;;;10.01;56.29
27958;BME280;15295;42.658;23.374;2022-11-30T16:11:12;94808.56;;;10.05;56.42
27958;BME280;15295;42.658;23.374;2022-11-30T16:13:39;94812.44;;;10.00;56.55
27958;BME280;15295;42.658;23.374;2022-11-30T16:16:17;94819.84;;;10.00;56.58
27958;BME280;15295;42.658;23.374;2022-11-30T16:18:46;94814.38;;;10.00;56.66
27958;BME280;15295;42.658;23.374;2022-11-30T16:21:14;94813.56;;;9.85;57.04
27958;BME280;15295;42.658;23.374;2022-11-30T16:23:42;94824.09;;;9.83;57.29
27958;BME280;15295;42.658;23.374;2022-11-30T16:26:11;94832.31;;;9.94;57.09